createdAt,value
2023-04-03T00:02:16.926Z,101051.50
2023-04-03T00:04:43.406Z,101050.63
2023-04-03T00:07:09.864Z,101046.09
2023-04-03T00:09:36.273Z,101049.50
2023-04-03T00:12:02.702Z,101047.53
2023-04-03T00:14:29.119Z,101048.94
2023-04-03T00:16:55.656Z,101043.25
2023-04-03T00:19:22.146Z,101050.50
2023-04-03T00:21:48.611Z,101040.69
2023-04-03T00:24:15.568Z,101046.38
2023-04-03T00:26:41.971Z,101039.44
2023-04-03T00:29:08.394Z,101034.44
2023-04-03T00:31:34.908Z,101032.88
2023-04-03T00:34:01.339Z,101039.28
2023-04-03T00:36:27.808Z,101037.69
2023-04-03T00:38:54.318Z,101037.97
2023-04-03T00:41:20.820Z,101030.91
2023-04-03T00:43:47.245Z,101037.69
2023-04-03T00:46:13.752Z,101030.19
2023-04-03T00:48:47.014Z,101032.75
2023-04-03T00:51:26.096Z,101029.47
2023-04-03T00:53:56.987Z,101027.06
2023-04-03T00:56:24.977Z,101031.88
2023-04-03T00:58:56.282Z,101040.97
2023-04-03T01:01:24.018Z,101032.72
2023-04-03T01:03:51.203Z,101026.91
2023-04-03T01:06:18.041Z,101034.72
2023-04-03T01:08:44.695Z,101036.41
2023-04-03T01:11:11.246Z,101031.47
2023-04-03T01:13:37.624Z,101031.34
2023-04-03T01:16:07.104Z,101026.81
2023-04-03T01:18:33.554Z,101027.06
2023-04-03T01:21:09.138Z,101031.63
2023-04-03T01:23:41.757Z,101028.06
2023-04-03T01:26:08.210Z,101018.00
2023-04-03T01:28:36.139Z,101019.69
2023-04-03T01:31:11.730Z,101021.69
2023-04-03T01:33:38.692Z,101016.28
2023-04-03T01:36:05.480Z,101017.56
2023-04-03T01:38:32.112Z,101017.56
2023-04-03T01:40:58.570Z,101012.03
2023-04-03T01:43:25.026Z,101018.28
2023-04-03T01:45:53.500Z,101010.06
2023-04-03T01:48:20.053Z,101009.22
2023-04-03T01:50:46.726Z,101008.38
2023-04-03T01:53:13.728Z,101017.44
2023-04-03T01:55:40.478Z,101008.50
2023-04-03T01:58:06.894Z,101007.78
2023-04-03T02:00:33.433Z,101004.78
2023-04-03T02:02:59.842Z,101006.94
2023-04-03T02:05:26.422Z,101006.53
2023-04-03T02:07:52.856Z,101009.22
2023-04-03T02:10:19.258Z,101009.94
2023-04-03T02:12:46.236Z,101013.47
2023-04-03T02:15:12.643Z,101003.25
2023-04-03T02:17:39.143Z,101006.09
2023-04-03T02:20:05.875Z,101002.13
2023-04-03T02:22:32.394Z,101004.56
2023-04-03T02:24:58.854Z,100998.56
2023-04-03T02:27:25.321Z,100994.75
2023-04-03T02:29:51.713Z,100993.47
2023-04-03T02:32:18.151Z,100988.09
2023-04-03T02:34:44.519Z,100993.63
2023-04-03T02:37:11.094Z,100995.59
2023-04-03T02:39:37.623Z,100996.56
2023-04-03T02:42:04.196Z,100995.16
2023-04-03T02:44:30.682Z,100986.66
2023-04-03T02:46:57.108Z,100986.78
2023-04-03T02:49:23.541Z,100985.94
2023-04-03T02:51:49.957Z,100982.41
2023-04-03T02:54:16.519Z,100980.41
2023-04-03T02:56:42.916Z,100986.22
2023-04-03T02:59:09.386Z,100978.59
2023-04-03T03:01:36.858Z,100986.22
2023-04-03T03:04:03.386Z,100979.56
2023-04-03T03:06:29.820Z,100978.44
2023-04-03T03:08:56.244Z,100977.47
2023-04-03T03:11:22.736Z,100970.38
2023-04-03T03:13:49.124Z,100971.34
2023-04-03T03:16:15.624Z,100964.97
2023-04-03T03:18:42.097Z,100968.78
2023-04-03T03:21:09.929Z,100970.91
2023-04-03T03:23:36.373Z,100973.47
2023-04-03T03:26:04.646Z,100978.16
2023-04-03T03:28:31.250Z,100968.66
2023-04-03T03:30:58.217Z,100966.97
2023-04-03T03:33:25.163Z,100961.56
2023-04-03T03:35:52.383Z,100969.34
2023-04-03T03:38:18.879Z,100964.66
2023-04-03T03:40:45.399Z,100964.22
2023-04-03T03:43:11.773Z,100962.94
2023-04-03T03:45:38.319Z,100961.66
2023-04-03T03:48:05.141Z,100959.53
2023-04-03T03:50:31.612Z,100964.78
2023-04-03T03:52:58.040Z,100964.09
2023-04-03T03:55:24.449Z,100963.22
2023-04-03T03:57:50.927Z,100965.22
2023-04-03T04:00:17.480Z,100967.06
2023-04-03T04:02:44.238Z,100970.59
2023-04-03T04:05:10.914Z,100967.91
2023-04-03T04:07:37.322Z,100974.31
2023-04-03T04:10:03.867Z,100976.16
2023-04-03T04:12:30.256Z,100976.00
2023-04-03T04:14:56.678Z,100969.47
2023-04-03T04:17:23.119Z,100965.63
2023-04-03T04:19:49.622Z,100961.66
2023-04-03T04:22:16.150Z,100961.50
2023-04-03T04:24:42.551Z,100972.13
2023-04-03T04:27:08.966Z,100970.00
2023-04-03T04:29:37.428Z,100969.75
2023-04-03T04:32:04.427Z,100970.56
2023-04-03T04:34:31.152Z,100963.47
2023-04-03T04:36:57.786Z,100960.22
2023-04-03T04:39:24.454Z,100960.50
2023-04-03T04:41:50.852Z,100961.50
2023-04-03T04:44:17.299Z,100959.81
2023-04-03T04:46:43.769Z,100961.50
2023-04-03T04:49:10.241Z,100969.44
2023-04-03T04:51:48.458Z,100963.19
2023-04-03T04:54:18.412Z,100965.19
2023-04-03T04:56:44.881Z,100956.69
2023-04-03T04:59:11.333Z,100967.63
2023-04-03T05:01:37.898Z,100965.06
2023-04-03T05:04:04.364Z,100967.75
2023-04-03T05:06:32.748Z,100973.16
2023-04-03T05:08:59.636Z,100971.16
2023-04-03T05:11:26.685Z,100978.13
2023-04-03T05:13:53.230Z,100974.31
2023-04-03T05:16:21.061Z,100973.28
2023-04-03T05:18:47.582Z,100984.09
2023-04-03T05:21:13.992Z,100977.84
2023-04-03T05:23:40.356Z,100980.53
2023-04-03T05:26:06.909Z,100974.31
2023-04-03T05:28:33.325Z,100982.66
2023-04-03T05:31:00.103Z,100979.25
2023-04-03T05:33:27.315Z,100979.41
2023-04-03T05:35:54.150Z,100976.00
2023-04-03T05:38:21.204Z,100982.53
2023-04-03T05:40:47.756Z,100983.56
2023-04-03T05:43:14.286Z,100990.94
2023-04-03T05:45:40.966Z,100987.41
2023-04-03T05:48:07.594Z,100996.47
2023-04-03T05:50:34.089Z,100992.78
2023-04-03T05:53:00.533Z,100993.31
2023-04-03T05:55:26.962Z,100994.03
2023-04-03T05:57:53.436Z,100997.00
2023-04-03T06:00:20.054Z,100986.66
2023-04-03T06:02:46.563Z,100996.72
2023-04-03T06:05:14.238Z,100995.97
2023-04-03T06:07:40.959Z,100998.66
2023-04-03T06:10:07.905Z,101002.31
2023-04-03T06:12:34.326Z,100994.78
2023-04-03T06:15:00.725Z,101002.88
2023-04-03T06:17:28.103Z,101008.28
2023-04-03T06:19:54.574Z,101007.41
2023-04-03T06:22:22.253Z,101006.88
2023-04-03T06:24:48.722Z,101012.28
2023-04-03T06:27:15.788Z,101016.66
2023-04-03T06:29:42.240Z,101013.97
2023-04-03T06:32:08.742Z,101017.38
2023-04-03T06:34:35.178Z,101016.91
2023-04-03T06:37:01.600Z,101014.19
2023-04-03T06:39:28.400Z,101013.16
2023-04-03T06:41:54.766Z,101010.31
2023-04-03T06:44:21.181Z,101009.25
2023-04-03T06:46:47.853Z,101010.06
2023-04-03T06:49:14.415Z,101015.25
2023-04-03T06:51:41.000Z,101009.78
2023-04-03T06:54:07.536Z,101008.72
2023-04-03T06:56:34.034Z,101006.81
2023-04-03T06:59:00.855Z,101014.97
2023-04-03T07:01:28.830Z,101007.25
2023-04-03T07:03:55.907Z,101003.94
2023-04-03T07:06:22.658Z,101011.91
2023-04-03T07:08:52.600Z,101011.34
2023-04-03T07:11:19.045Z,101002.84
2023-04-03T07:13:45.585Z,101006.72
2023-04-03T07:16:13.497Z,100994.34
2023-04-03T07:18:40.013Z,100998.75
2023-04-03T07:21:06.509Z,100992.63
2023-04-03T07:23:32.993Z,101000.09
2023-04-03T07:25:59.444Z,100997.38
2023-04-03T07:28:26.875Z,101002.94
2023-04-03T07:30:54.524Z,100997.38
2023-04-03T07:33:22.221Z,100993.81
2023-04-03T07:35:48.708Z,101001.06
2023-04-03T07:38:15.131Z,100994.13
2023-04-03T07:40:41.549Z,100999.38
2023-04-03T07:43:07.943Z,101000.38
2023-04-03T07:45:36.191Z,100999.53
2023-04-03T07:48:03.190Z,100994.28
2023-04-03T07:50:31.260Z,100994.97
2023-04-03T07:52:58.716Z,100999.44
2023-04-03T07:55:25.658Z,100999.59
2023-04-03T07:57:52.393Z,100996.22
2023-04-03T08:00:18.916Z,100998.88
2023-04-03T08:02:45.807Z,100985.81
2023-04-03T08:05:12.532Z,101001.63
2023-04-03T08:07:39.138Z,100989.97
2023-04-03T08:10:06.230Z,100989.31
2023-04-03T08:12:33.027Z,100993.66
2023-04-03T08:15:00.954Z,100996.19
2023-04-03T08:17:27.418Z,100988.28
2023-04-03T08:19:53.841Z,100978.34
2023-04-03T08:22:20.276Z,100978.94
2023-04-03T08:24:58.454Z,100980.13
2023-04-03T08:27:25.792Z,100976.25
2023-04-03T08:29:52.877Z,100984.44
2023-04-03T08:32:20.006Z,100978.34
2023-04-03T08:34:47.242Z,100977.53
2023-04-03T08:37:13.650Z,100977.22
2023-04-03T08:39:40.048Z,100978.59
2023-04-03T08:42:08.477Z,100975.56
2023-04-03T08:44:38.429Z,100965.91
2023-04-03T08:47:25.340Z,100966.44
2023-04-03T08:49:54.141Z,100970.91
2023-04-03T08:52:43.231Z,100964.97
2023-04-03T08:55:16.986Z,100965.69
2023-04-03T08:57:45.396Z,100969.41
2023-04-03T09:00:14.707Z,100973.00
2023-04-03T09:02:44.685Z,100965.00
2023-04-03T09:05:15.658Z,100963.50
2023-04-03T09:08:14.506Z,100969.94
2023-04-03T09:10:41.201Z,100959.09
2023-04-03T09:13:09.484Z,100965.88
2023-04-03T09:15:39.333Z,100953.66
2023-04-03T09:18:22.013Z,100946.53
2023-04-03T09:21:07.058Z,100954.50
2023-04-03T09:23:35.372Z,100960.94
2023-04-03T09:26:31.350Z,100956.19
2023-04-03T09:28:59.174Z,100951.78
2023-04-03T09:31:26.783Z,100951.78
2023-04-03T09:33:54.468Z,100944.66
2023-04-03T09:36:38.340Z,100941.25
2023-04-03T09:39:06.066Z,100945.00
2023-04-03T09:41:34.043Z,100938.19
2023-04-03T09:44:00.793Z,100934.13
2023-04-03T09:46:34.551Z,100938.84
2023-04-03T09:49:08.876Z,100930.56
2023-04-03T09:51:36.712Z,100926.84
2023-04-03T09:54:03.193Z,100929.34
2023-04-03T09:56:30.354Z,100914.44
2023-04-03T09:58:59.710Z,100912.03
2023-04-03T10:01:26.221Z,100920.50
2023-04-03T10:04:16.193Z,100918.75
2023-04-03T10:06:50.924Z,100912.47
2023-04-03T10:09:18.561Z,100899.97
2023-04-03T10:12:07.914Z,100903.81
2023-04-03T10:14:35.637Z,100906.16
2023-04-03T10:17:14.154Z,100898.41
2023-04-03T10:19:48.175Z,100890.00
2023-04-03T10:22:28.922Z,100890.88
2023-04-03T10:24:59.798Z,100882.41
2023-04-03T10:27:38.507Z,100882.88
2023-04-03T10:30:09.973Z,100887.13
2023-04-03T10:32:55.195Z,100882.84
2023-04-03T10:35:27.585Z,100880.28
2023-04-03T10:37:53.921Z,100875.69
2023-04-03T10:40:23.508Z,100889.22
2023-04-03T10:43:11.167Z,100879.28
2023-04-03T10:45:56.317Z,100872.69
2023-04-03T10:48:41.699Z,100869.94
2023-04-03T10:51:11.362Z,100866.53
2023-04-03T10:53:40.767Z,100860.44
2023-04-03T10:56:27.003Z,100860.78
2023-04-03T10:58:55.584Z,100858.00
2023-04-03T11:01:23.008Z,100848.50
2023-04-03T11:03:51.630Z,100833.75
2023-04-03T11:06:18.536Z,100839.53
2023-04-03T11:08:52.518Z,100836.47
2023-04-03T11:11:22.361Z,100831.72
2023-04-03T11:14:01.735Z,100818.34
2023-04-03T11:16:30.590Z,100817.16
2023-04-03T11:19:06.245Z,100817.50
2023-04-03T11:21:40.448Z,100809.88
2023-04-03T11:24:08.850Z,100807.31
2023-04-03T11:26:37.778Z,100803.22
2023-04-03T11:29:05.092Z,100799.81
2023-04-03T11:31:38.295Z,100789.13
2023-04-03T11:34:23.623Z,100796.75
2023-04-03T11:36:51.047Z,100793.19
2023-04-03T11:39:17.700Z,100783.03
2023-04-03T11:41:44.164Z,100779.59
2023-04-03T11:44:31.384Z,100765.16
2023-04-03T11:47:00.587Z,100773.94
2023-04-03T11:49:45.907Z,100759.31
2023-04-03T12:04:24.418Z,100752.63
2023-04-03T12:06:53.285Z,100760.69
2023-04-03T12:09:23.938Z,100754.59
2023-04-03T12:11:50.349Z,100753.31
2023-04-03T12:14:17.755Z,100750.25
2023-04-03T12:16:46.009Z,100737.44
2023-04-03T12:19:15.672Z,100735.16
2023-04-03T12:21:44.887Z,100724.69
2023-04-03T12:24:11.778Z,100723.41
2023-04-03T12:26:57.002Z,100720.78
2023-04-03T12:29:35.549Z,100713.78
2023-04-03T12:32:01.933Z,100724.00
2023-04-03T12:34:51.317Z,100730.66
2023-04-03T12:37:36.610Z,100739.81
2023-04-03T12:40:21.761Z,100736.25
2023-04-03T12:43:09.178Z,100739.44
2023-04-03T12:45:42.833Z,100740.22
2023-04-03T12:48:13.166Z,100734.94
2023-04-03T12:50:39.588Z,100727.09
2023-04-03T12:53:18.196Z,100716.63
2023-04-03T12:55:44.689Z,100712.72
2023-04-03T12:58:16.121Z,100716.31
2023-04-03T13:00:42.642Z,100724.72
2023-04-03T13:03:22.752Z,100713.41
2023-04-03T13:05:49.237Z,100691.56
2023-04-03T13:08:17.221Z,100694.88
2023-04-03T13:10:57.181Z,100700.47
2023-04-03T13:13:24.169Z,100694.00
2023-04-03T13:15:51.254Z,100705.41
2023-04-03T13:18:32.289Z,100703.09
2023-04-03T13:21:00.229Z,100699.81
2023-04-03T13:23:26.627Z,100703.97
2023-04-03T13:25:53.076Z,100706.09
2023-04-03T13:28:21.396Z,100703.22
2023-04-03T13:31:11.718Z,100702.06
2023-04-03T13:33:41.373Z,100704.44
2023-04-03T13:36:09.458Z,100705.34
2023-04-03T13:38:37.402Z,100697.91
2023-04-03T13:41:06.152Z,100702.84
2023-04-03T13:43:34.417Z,100697.25
2023-04-03T13:46:01.072Z,100699.81
2023-04-03T13:48:27.689Z,100704.75
2023-04-03T13:51:01.451Z,100702.38
2023-04-03T13:53:28.466Z,100693.38
2023-04-03T13:55:56.726Z,100694.72
2023-04-03T13:58:24.358Z,100688.28
2023-04-03T14:00:55.499Z,100685.88
2023-04-03T14:03:27.794Z,100684.25
2023-04-03T14:05:54.425Z,100680.00
2023-04-03T14:08:26.692Z,100673.56
2023-04-03T14:10:58.933Z,100678.09
2023-04-03T14:13:25.404Z,100679.66
2023-04-03T14:15:53.853Z,100673.56
2023-04-03T14:18:20.979Z,100669.78
2023-04-03T14:20:47.943Z,100676.56
2023-04-03T14:23:14.607Z,100681.28
2023-04-03T14:25:41.301Z,100677.84
2023-04-03T14:28:15.926Z,100684.44
2023-04-03T14:30:42.394Z,100690.00
2023-04-03T14:33:11.252Z,100686.91
2023-04-03T14:35:38.052Z,100690.34
2023-04-03T14:38:06.451Z,100693.31
2023-04-03T14:40:32.888Z,100686.59
2023-04-03T14:43:00.349Z,100686.31
2023-04-03T14:45:27.305Z,100684.16
2023-04-03T14:47:55.093Z,100687.06
2023-04-03T14:50:23.721Z,100684.56
2023-04-03T14:52:51.145Z,100678.16
2023-04-03T14:55:18.301Z,100682.22
2023-04-03T14:57:44.788Z,100683.59
2023-04-03T15:00:14.708Z,100680.53
2023-04-03T15:02:41.425Z,100686.66
2023-04-03T15:05:09.346Z,100689.41
2023-04-03T15:07:36.792Z,100684.00
2023-04-03T15:10:04.940Z,100694.88
2023-04-03T15:12:31.350Z,100691.13
2023-04-03T15:15:02.760Z,100694.88
2023-04-03T15:17:29.968Z,100700.47
2023-04-03T15:19:56.927Z,100692.66
2023-04-03T15:22:23.385Z,100700.94
2023-04-03T15:24:49.891Z,100697.22
2023-04-03T15:27:16.585Z,100694.50
2023-04-03T15:29:43.307Z,100703.13
2023-04-03T15:32:10.089Z,100696.19
2023-04-03T15:34:36.922Z,100694.47
2023-04-03T15:37:03.505Z,100694.47
2023-04-03T15:39:29.878Z,100698.91
2023-04-03T15:41:56.680Z,100697.88
2023-04-03T15:44:23.101Z,100693.28
2023-04-03T15:46:52.532Z,100693.50
2023-04-03T15:49:19.478Z,100692.81
2023-04-03T15:51:46.289Z,100689.56
2023-04-03T15:54:12.880Z,100684.66
2023-04-03T15:56:39.309Z,100690.41
2023-04-03T15:59:05.817Z,100684.47
2023-04-03T16:01:32.358Z,100686.84
2023-04-03T16:03:58.909Z,100682.06
2023-04-03T16:06:25.912Z,100678.34
2023-04-03T16:08:52.436Z,100683.41
2023-04-03T16:11:18.852Z,100671.06
2023-04-03T16:13:45.269Z,100672.75
2023-04-03T16:16:11.763Z,100674.28
2023-04-03T16:18:38.299Z,100677.00
2023-04-03T16:21:04.733Z,100677.97
2023-04-03T16:23:31.246Z,100677.16
2023-04-03T16:25:58.263Z,100674.44
2023-04-03T16:28:24.719Z,100670.72
2023-04-03T16:30:51.183Z,100673.59
2023-04-03T16:33:17.633Z,100671.06
2023-04-03T16:35:45.028Z,100673.22
2023-04-03T16:38:11.815Z,100684.25
2023-04-03T16:40:38.313Z,100678.84
2023-04-03T16:43:06.377Z,100679.13
2023-04-03T16:45:32.806Z,100676.75
2023-04-03T16:47:59.268Z,100672.31
2023-04-03T16:50:25.664Z,100672.31
2023-04-03T16:52:52.115Z,100672.19
2023-04-03T16:55:18.665Z,100671.19
2023-04-03T16:57:45.126Z,100667.59
2023-04-03T17:00:11.978Z,100673.72
2023-04-03T17:02:38.459Z,100671.72
2023-04-03T17:05:05.166Z,100675.44
2023-04-03T17:07:31.597Z,100668.31
2023-04-03T17:09:58.448Z,100668.31
2023-04-03T17:12:24.918Z,100672.88
2023-04-03T17:14:51.462Z,100669.34
2023-04-03T17:17:19.525Z,100670.31
2023-04-03T17:19:45.965Z,100674.03
2023-04-03T17:22:12.588Z,100662.34
2023-04-03T17:24:39.026Z,100669.63
2023-04-03T17:27:06.145Z,100668.94
2023-04-03T17:29:32.578Z,100672.81
2023-04-03T17:31:59.108Z,100669.44
2023-04-03T17:34:25.697Z,100667.91
2023-04-03T17:36:52.199Z,100669.94
2023-04-03T17:39:18.649Z,100670.25
2023-04-03T17:41:46.057Z,100672.25
2023-04-03T17:44:12.821Z,100673.44
2023-04-03T17:46:39.325Z,100671.91
2023-04-03T17:49:05.996Z,100672.06
2023-04-03T17:51:35.453Z,100674.94
2023-04-03T17:54:02.097Z,100677.97
2023-04-03T17:56:28.534Z,100670.69
2023-04-03T17:58:56.685Z,100680.69
2023-04-03T18:01:24.818Z,100676.44
2023-04-03T18:03:55.241Z,100673.06
2023-04-03T18:06:22.700Z,100672.38
2023-04-03T18:09:09.404Z,100670.84
2023-04-03T18:11:36.047Z,100672.19
2023-04-03T18:14:02.793Z,100676.03
2023-04-03T18:16:29.672Z,100685.47
2023-04-03T18:19:06.879Z,100681.38
2023-04-03T18:21:42.606Z,100689.28
2023-04-03T18:24:11.779Z,100683.81
2023-04-03T18:26:38.311Z,100689.50
2023-04-03T18:29:05.079Z,100689.78
2023-04-03T18:31:32.421Z,100688.00
2023-04-03T18:33:59.096Z,100699.41
2023-04-03T18:36:26.582Z,100707.97
2023-04-03T18:38:53.287Z,100713.16
2023-04-03T18:41:22.552Z,100712.38
2023-04-03T18:43:49.200Z,100719.41
2023-04-03T18:46:15.729Z,100716.50
2023-04-03T18:48:42.464Z,100720.25
2023-04-03T18:51:12.314Z,100724.56
2023-04-03T18:56:10.126Z,100726.31
2023-04-03T18:58:36.621Z,100729.50
2023-04-03T19:01:03.581Z,100739.72
2023-04-03T19:03:30.583Z,100740.88
2023-04-03T19:05:57.310Z,100737.63
2023-04-03T19:08:23.743Z,100749.41
2023-04-03T19:10:50.175Z,100750.28
2023-04-03T19:13:16.545Z,100752.28
2023-04-03T19:15:43.124Z,100761.66
2023-04-03T19:18:09.666Z,100769.75
2023-04-03T19:20:36.383Z,100762.50
2023-04-03T19:23:03.007Z,100771.59
2023-04-03T19:25:29.463Z,100778.13
2023-04-03T19:27:56.054Z,100769.50
2023-04-03T19:30:22.752Z,100774.47
2023-04-03T19:32:49.188Z,100773.38
2023-04-03T19:35:15.648Z,100772.22
2023-04-03T19:37:42.677Z,100776.66
2023-04-03T19:40:09.617Z,100780.81
2023-04-03T19:42:40.196Z,100776.00
2023-04-03T19:45:07.291Z,100780.97
2023-04-03T19:47:34.031Z,100781.25
2023-04-03T19:50:00.560Z,100786.09
2023-04-03T19:52:27.090Z,100780.28
2023-04-03T19:54:53.580Z,100785.38
2023-04-03T19:57:20.092Z,100790.94
2023-04-03T19:59:46.561Z,100786.66
2023-04-03T20:02:13.054Z,100792.22
2023-04-03T20:04:39.696Z,100783.00
2023-04-03T20:07:06.285Z,100791.22
2023-04-03T20:09:33.115Z,100793.03
2023-04-03T20:12:01.302Z,100792.31
2023-04-03T20:14:28.389Z,100791.41
2023-04-03T20:16:54.900Z,100794.38
2023-04-03T20:19:21.493Z,100799.03
2023-04-03T20:21:48.033Z,100799.19
2023-04-03T20:24:16.461Z,100797.06
2023-04-03T20:26:46.396Z,100792.38
2023-04-03T20:29:14.649Z,100797.44
2023-04-03T20:31:42.066Z,100792.91
2023-04-03T20:34:08.605Z,100792.75
2023-04-03T20:36:35.159Z,100792.63
2023-04-03T20:39:01.650Z,100797.00
2023-04-03T20:41:28.066Z,100793.19
2023-04-03T20:43:54.562Z,100795.56
2023-04-03T20:46:22.741Z,100791.72
2023-04-03T20:48:49.197Z,100797.66
2023-04-03T20:51:19.820Z,100797.66
2023-04-03T20:53:46.612Z,100789.44
2023-04-03T20:56:14.337Z,100790.28
2023-04-03T20:58:43.511Z,100785.72
2023-04-03T21:01:14.222Z,100786.44
2023-04-03T21:03:40.748Z,100788.28
2023-04-03T21:06:25.853Z,100787.44
2023-04-03T21:09:11.096Z,100788.28
2023-04-03T21:11:56.248Z,100780.19
2023-04-03T21:14:42.421Z,100781.03
2023-04-03T21:17:08.861Z,100780.88
2023-04-03T21:19:40.109Z,100783.59
2023-04-03T21:22:06.658Z,100780.88
2023-04-03T21:24:33.105Z,100787.97
2023-04-03T21:26:59.621Z,100788.84
2023-04-03T21:29:26.021Z,100785.13
2023-04-03T21:31:59.290Z,100794.06
2023-04-03T21:34:29.677Z,100804.00
2023-04-03T21:37:06.122Z,100809.28
2023-04-03T21:39:33.128Z,100810.94
2023-04-03T21:41:59.836Z,100818.63
2023-04-03T21:44:28.487Z,100831.56
2023-04-03T21:46:55.149Z,100842.25
2023-04-03T21:49:22.392Z,100845.53
2023-04-03T21:51:49.714Z,100852.53
2023-04-03T21:54:16.609Z,100852.81
2023-04-03T21:56:43.088Z,100854.69
2023-04-03T21:59:09.711Z,100860.66
2023-04-03T22:01:36.323Z,100879.53
2023-04-03T22:04:02.973Z,100881.13
2023-04-03T22:06:29.541Z,100875.16
2023-04-03T22:08:58.660Z,100890.63
2023-04-03T22:11:27.180Z,100889.19
2023-04-03T22:13:54.288Z,100896.28
2023-04-03T22:16:23.089Z,100884.09
2023-04-03T22:18:51.362Z,100896.59
2023-04-03T22:21:17.878Z,100908.22
2023-04-03T22:23:44.346Z,100920.41
2023-04-03T22:26:11.707Z,100923.13
2023-04-03T22:28:39.212Z,100934.84
2023-04-03T22:31:08.721Z,100938.25
2023-04-03T22:33:38.763Z,100942.94
2023-04-03T22:36:06.078Z,100937.69
2023-04-03T22:38:32.674Z,100949.31
2023-04-03T22:40:59.841Z,100964.34
2023-04-03T22:43:26.737Z,100973.00
2023-04-03T22:45:53.268Z,100987.72
2023-04-03T22:48:19.728Z,101014.78
2023-04-03T22:50:46.966Z,101027.81
2023-04-03T22:53:13.416Z,101017.63
2023-04-03T22:55:39.866Z,101006.00
2023-04-03T22:58:06.598Z,100997.75
2023-04-03T23:00:32.988Z,101015.53
2023-04-03T23:02:59.734Z,101027.84
2023-04-03T23:05:26.316Z,101044.22
2023-04-03T23:07:52.708Z,101059.81
2023-04-03T23:10:19.530Z,101070.97
2023-04-03T23:12:45.954Z,101053.16
2023-04-03T23:15:14.523Z,101069.41
2023-04-03T23:17:41.011Z,101055.25
2023-04-03T23:20:07.716Z,101050.41
2023-04-03T23:22:34.237Z,101063.59
2023-04-03T23:25:00.738Z,101048.47
2023-04-03T23:27:27.205Z,101060.69
2023-04-03T23:29:53.675Z,101072.22
2023-04-03T23:32:20.259Z,101075.38
2023-04-03T23:34:47.064Z,101078.41
2023-04-03T23:37:13.508Z,101099.44
2023-04-03T23:39:39.921Z,101081.38
2023-04-03T23:42:09.211Z,101084.03
2023-04-03T23:44:35.810Z,101079.94
2023-04-03T23:47:02.326Z,101080.97
2023-04-03T23:49:28.887Z,101091.06
2023-04-03T23:51:56.889Z,101095.31
2023-04-03T23:54:23.562Z,101086.72
2023-04-03T23:56:49.971Z,101085.19
2023-04-03T23:59:16.434Z,101079.13
